Beaumaiden — PHOU — position and weather

sailwx.info

Track history (hours):
 
Tides and Currents Weather Stations Pressure Air Temp Water Temp Dewpoint Dewpoint Depression Visibility Wind Speed Wind Dir Waves Ship Positions

Beaumaiden

Last reported at 2017-Dec-11 10:36 UTC. Time now 2017-Dec-12 16:15 UTC.
Position N 49°50' W 003°15'.

Length 88 m; draft 5.4 m.

Type: Cargo ship. MMSI: 244366000.

Date/timePositionNaut miles runAvg speedWind from/ knotsBaromVisibWave heightAir tempDewpointWater temp
2017-Dec-11 10:36N 49°50' W 003°15'1 8.3
2017-Dec-11 10:30N 49°51' W 003°14'7 8.8
2017-Dec-11 09:43N 49°54' W 003°05'2 9.2
2017-Dec-11 09:27N 49°55' W 003°02'4 9.7
2017-Dec-11 09:01N 49°58' W 002°56'510.0
2017-Dec-11 08:29N 49°60' W 002°48'610.5
2017-Dec-11 07:57N 50°02' W 002°40'92 7.9
2017-Dec-10 20:22N 50°27' W 000°22'3 8.7
2017-Dec-10 20:00N 50°28' W 000°17'4 8.0
2017-Dec-10 19:30N 50°29' W 000°11'4 7.8
2017-Dec-10 19:01N 50°30' W 000°05'4 7.1
2017-Dec-10 18:26N 50°31' E 000°01'3 6.6
2017-Dec-10 18:00N 50°32' E 000°05'3 5.9
2017-Dec-10 17:29N 50°32' E 000°10'3 5.1
2017-Dec-10 16:59N 50°33' E 000°14'2 4.6
2017-Dec-10 16:29N 50°33' E 000°18'2 3.9
2017-Dec-10 16:00N 50°33' E 000°21'2 2.7
2017-Dec-10 15:21N 50°34' E 000°23'1 2.0
2017-Dec-10 14:47N 50°34' E 000°25'1 1.8
2017-Dec-10 14:18N 50°35' E 000°26'1 1.5
2017-Dec-10 13:53N 50°35' E 000°27'1 1.2
2017-Dec-10 13:23N 50°36' E 000°27'0 0.6
2017-Dec-10 13:01N 50°36' E 000°27'0 0.5
2017-Dec-10 12:30N 50°36' E 000°28'0 0.8
2017-Dec-10 12:00N 50°36' E 000°28'0 0.8
2017-Dec-10 11:30N 50°36' E 000°29'1 1.7
2017-Dec-10 11:00N 50°36' E 000°30'1 2.2
2017-Dec-10 10:31N 50°37' E 000°32'2 3.2
2017-Dec-10 10:00N 50°37' E 000°34'2 3.6
2017-Dec-10 09:30N 50°38' E 000°36'2 4.2
2017-Dec-10 09:00N 50°39' E 000°39'3 5.1
2017-Dec-10 08:30N 50°41' E 000°42'3 5.4
2017-Dec-10 08:01N 50°43' E 000°45'3 5.7
2017-Dec-10 07:31N 50°45' E 000°48'3 6.0
2017-Dec-10 07:00N 50°47' E 000°52'3 6.4
2017-Dec-10 06:30N 50°49' E 000°56'4 6.7
2017-Dec-10 05:58N 50°51' E 001°01'4 6.8
2017-Dec-10 05:20N 50°54' E 001°06'2 6.9
2017-Dec-10 05:00N 50°55' E 001°09'3 6.7
2017-Dec-10 04:30N 50°57' E 001°13'3 6.9
2017-Dec-10 04:00N 50°59' E 001°17'4 7.5
2017-Dec-10 03:30N 51°02' E 001°22'4 8.9
2017-Dec-10 03:00N 51°04' E 001°27'510.3
2017-Dec-10 02:31N 51°08' E 001°34'510.9
2017-Dec-10 02:01N 51°11' E 001°40'611.2
2017-Dec-10 01:30N 51°15' E 001°47'611.9
2017-Dec-10 01:00N 51°20' E 001°52'611.7
2017-Dec-10 00:31N 51°25' E 001°57'5 9.0
2017-Dec-10 00:00N 51°24' E 002°05'5 9.4
2017-Dec-09 23:30N 51°22' E 002°11'5 9.6
2017-Dec-09 23:01N 51°21' E 002°19'610.2
2017-Dec-09 22:28N 51°22' E 002°28'510.0
2017-Dec-09 21:59N 51°23' E 002°35'5 9.9
2017-Dec-09 21:30N 51°22' E 002°43'4 7.9
2017-Dec-09 21:00N 51°22' E 002°49'5 9.2
2017-Dec-09 20:30N 51°22' E 002°57'4 9.0
2017-Dec-09 20:01N 51°22' E 003°04'4 8.9
2017-Dec-09 19:31N 51°23' E 003°11'4 8.6
2017-Dec-09 19:01N 51°24' E 003°17'4 8.8
2017-Dec-09 18:30N 51°24' E 003°24'4 8.4
2017-Dec-09 17:59N 51°25' E 003°31'4 6.9
2017-Dec-09 17:28N 51°25' E 003°37'3 7.5
2017-Dec-09 17:00N 51°24' E 003°42'4 8.5
2017-Dec-09 16:31N 51°21' E 003°48'4 7.5
2017-Dec-09 16:01N 51°22' E 003°54'4 7.7
2017-Dec-09 15:30N 51°25' E 003°57'3 5.7
2017-Dec-09 15:01N 51°25' E 004°02'4 7.5
2017-Dec-09 14:30N 51°22' E 004°06'4 8.4
2017-Dec-09 14:01N 51°24' E 004°12'5 9.0
2017-Dec-09 13:30N 51°21' E 004°17'0 0.4
2017-Dec-09 13:01N 51°21' E 004°17'0 0.0
2017-Dec-09 12:30N 51°21' E 004°17'0 0.4
2017-Dec-09 12:00N 51°21' E 004°17'1 1.8
2017-Dec-09 11:30N 51°22' E 004°17'0 0.0
2017-Dec-09 10:59N 51°22' E 004°17'0 0.0
2017-Dec-09 10:23N 51°22' E 004°17'0 0.0
2017-Dec-09 09:53N 51°22' E 004°17'0 0.0
2017-Dec-09 09:26N 51°22' E 004°17'0 0.0
2017-Dec-09 08:59N 51°22' E 004°17'0 0.0
2017-Dec-09 06:15N 51°22' E 004°17'0 0.0
2017-Dec-09 04:09N 51°22' E 004°17'0 0.0
2017-Dec-09 03:45N 51°22' E 004°17'0 0.0
2017-Dec-09 03:21N 51°22' E 004°17'0 0.0
2017-Dec-09 02:57N 51°22' E 004°17'0 0.0
2017-Dec-09 02:24N 51°22' E 004°17'0 0.0
2017-Dec-09 01:57N 51°22' E 004°17'0 0.0
2017-Dec-07 23:10N 51°22' E 004°17'0 0.0
2017-Dec-07 22:57N 51°22' E 004°17'0 0.8
2017-Dec-07 22:30N 51°22' E 004°17'4 7.4
2017-Dec-07 22:01N 51°18' E 004°19'2 3.1
2017-Dec-07 21:30N 51°17' E 004°20'0 0.1
2017-Dec-07 21:00N 51°17' E 004°20'2 3.3
2017-Dec-07 20:30N 51°18' E 004°18'1 1.8
2017-Dec-07 20:00N 51°18' E 004°17'2 3.5
2017-Dec-07 19:30N 51°20' E 004°16'3 6.0
2017-Dec-07 18:59N 51°22' E 004°13'3 6.5
2017-Dec-07 18:30N 51°22' E 004°08'4 8.5
2017-Dec-07 18:00N 51°24' E 004°02'3 5.5
2017-Dec-07 17:30N 51°24' E 003°58'510.7
2017-Dec-07 17:00N 51°21' E 003°51'611.2
2017-Dec-07 16:30N 51°23' E 003°43'611.4
2017-Dec-07 16:00N 51°25' E 003°34'4 9.0
2017-Dec-07 15:30N 51°25' E 003°27'4 8.6
2017-Dec-07 15:00N 51°24' E 003°20'5 9.0
2017-Dec-07 14:30N 51°23' E 003°13'612.5
2017-Dec-07 14:00N 51°22' E 003°03'612.7
2017-Dec-07 13:30N 51°21' E 002°53'610.7
2017-Dec-07 12:59N 51°22' E 002°44'3 5.2
2017-Dec-07 12:30N 51°21' E 002°41'4 6.2
2017-Dec-07 11:56N 51°20' E 002°36'1 1.3
2017-Dec-07 11:27N 51°19' E 002°36'1 1.7
2017-Dec-07 10:59N 51°19' E 002°38'2 4.6
2017-Dec-07 10:31N 51°18' E 002°35'2 3.9
2017-Dec-07 09:59N 51°17' E 002°32'1 1.5
2017-Dec-07 09:22N 51°18' E 002°31'1 3.8
2017-Dec-07 09:00N 51°19' E 002°34'2 3.8
2017-Dec-07 08:28N 51°19' E 002°36'2 3.3
2017-Dec-07 08:00N 51°20' E 002°39'1 2.8
2017-Dec-07 07:29N 51°19' E 002°37'3 5.6
2017-Dec-07 06:58N 51°18' E 002°33'2 3.7
2017-Dec-07 06:30N 51°18' E 002°30'2 4.0
2017-Dec-07 06:00N 51°19' E 002°33'2 3.9
2017-Dec-07 05:30N 51°19' E 002°36'1 2.7
2017-Dec-07 05:00N 51°19' E 002°38'3 5.6
2017-Dec-07 04:30N 51°18' E 002°35'3 5.7
2017-Dec-07 04:00N 51°17' E 002°30'3 4.9
2017-Dec-07 03:29N 51°19' E 002°32'2 3.8
2017-Dec-07 02:59N 51°21' E 002°34'0 0.5
2017-Dec-07 02:24N 51°20' E 002°34'0 0.4
2017-Dec-07 01:48N 51°20' E 002°34'0 0.0
2017-Dec-07 00:36N 51°20' E 002°34'0 0.1
2017-Dec-07 00:24N 51°20' E 002°34'0 0.1
2017-Dec-07 00:00N 51°20' E 002°34'0 0.1
2017-Dec-06 23:27N 51°20' E 002°34'0 0.1
2017-Dec-06 23:00N 51°20' E 002°34'0 0.1
2017-Dec-06 22:29N 51°20' E 002°34'1 1.1
2017-Dec-06 22:00N 51°21' E 002°33'4 7.5
2017-Dec-06 21:28N 51°21' E 002°27'5 9.4
2017-Dec-06 20:58N 51°19' E 002°20'  
2017-Dec-03 02:21N 49°56' W 002°56'410.6
2017-Dec-03 01:59N 49°58' W 002°51'612.3
2017-Dec-03 01:27N 50°00' W 002°41'94 9.9
2017-Dec-02 16:01N 50°26' W 000°20'110.8
2017-Dec-02 15:57N 50°26' W 000°19'511.2
2017-Dec-02 15:30N 50°28' W 000°12'611.5
2017-Dec-02 15:00N 50°30' W 000°03'611.6
2017-Dec-02 14:30N 50°32' E 000°05'911.8
2017-Dec-02 13:46N 50°35' E 000°18'311.7
2017-Dec-02 13:30N 50°36' E 000°23'611.6
2017-Dec-02 13:00N 50°38' E 000°31'611.0
2017-Dec-02 12:30N 50°40' E 000°39'510.5
2017-Dec-02 12:00N 50°43' E 000°46'510.1
2017-Dec-02 11:30N 50°46' E 000°53'5 9.5
2017-Dec-02 11:00N 50°49' E 000°59'6 8.9
2017-Dec-02 10:21N 50°53' E 001°05'3 8.7
2017-Dec-02 09:59N 50°55' E 001°09'4 8.8
2017-Dec-02 09:30N 50°58' E 001°14'4 8.8
2017-Dec-02 08:59N 51°01' E 001°20'5 9.7
2017-Dec-02 08:30N 51°04' E 001°26'511.1
2017-Dec-02 08:01N 51°07' E 001°33'612.1
2017-Dec-02 07:30N 51°11' E 001°40'612.6
2017-Dec-02 07:00N 51°15' E 001°48'612.4
2017-Dec-02 06:30N 51°20' E 001°53'612.5
2017-Dec-02 06:01N 51°26' E 001°58'612.0
2017-Dec-02 05:30N 51°30' E 002°04'611.6
2017-Dec-02 04:59N 51°34' E 002°11'30 9.9
2017-Dec-02 01:54N 51°58' E 002°43'4 8.6
2017-Dec-02 01:27N 52°00' E 002°47'4 8.5
2017-Dec-02 01:00N 52°02' E 002°53'28 8.9
2017-Dec-01 21:52N 52°03' E 003°38'410.8
2017-Dec-01 21:30N 52°03' E 003°44'510.5
2017-Dec-01 21:00N 52°03' E 003°53'5 9.6
2017-Dec-01 20:30N 52°01' E 004°00'4 8.9
2017-Dec-01 20:00N 51°59' E 004°07'611.1
2017-Dec-01 19:30N 51°55' E 004°14'5 9.8
2017-Dec-01 19:00N 51°54' E 004°21'4 8.4
2017-Dec-01 18:30N 51°54' E 004°28'0 0.1
2017-Dec-01 18:00N 51°54' E 004°28'0 0.0
2017-Dec-01 17:30N 51°54' E 004°28'0 0.0
2017-Dec-01 17:00N 51°54' E 004°28'0 0.0
2017-Dec-01 16:30N 51°54' E 004°28'0 0.0
2017-Dec-01 16:00N 51°54' E 004°28'0 0.0
2017-Dec-01 15:30N 51°54' E 004°28'0 0.0
2017-Dec-01 14:57N 51°54' E 004°28'0 0.0
2017-Dec-01 14:30N 51°54' E 004°28'0 0.0
2017-Dec-01 14:00N 51°54' E 004°28'0 0.0
2017-Dec-01 13:30N 51°54' E 004°28'0 0.0
2017-Dec-01 13:00N 51°54' E 004°28'0 0.0
2017-Dec-01 12:30N 51°54' E 004°28'0 0.0
2017-Dec-01 12:00N 51°54' E 004°28'0 0.0
2017-Dec-01 11:30N 51°54' E 004°28'0 0.0
2017-Dec-01 11:00N 51°54' E 004°28'  
Track history (hours):
 
Tides and Currents Weather Stations Pressure Air Temp Water Temp Dewpoint Dewpoint Depression Visibility Wind Speed Wind Dir Waves Ship Positions

Beaumaiden

Last reported at 2017-Dec-11 10:36 UTC. Time now 2017-Dec-12 16:15 UTC.
Position N 49°50' W 003°15'.

Length 88 m; draft 5.4 m.

Type: Cargo ship. MMSI: 244366000.

Date/timePositionNaut miles runAvg speedWind from/ knotsBaromVisibWave heightAir tempDewpointWater temp
2017-Dec-11 10:36N 49°50' W 003°15'1 8.3
2017-Dec-11 10:30N 49°51' W 003°14'7 8.8
2017-Dec-11 09:43N 49°54' W 003°05'2 9.2
2017-Dec-11 09:27N 49°55' W 003°02'4 9.7
2017-Dec-11 09:01N 49°58' W 002°56'510.0
2017-Dec-11 08:29N 49°60' W 002°48'610.5
2017-Dec-11 07:57N 50°02' W 002°40'92 7.9
2017-Dec-10 20:22N 50°27' W 000°22'3 8.7
2017-Dec-10 20:00N 50°28' W 000°17'4 8.0
2017-Dec-10 19:30N 50°29' W 000°11'4 7.8
2017-Dec-10 19:01N 50°30' W 000°05'4 7.1
2017-Dec-10 18:26N 50°31' E 000°01'3 6.6
2017-Dec-10 18:00N 50°32' E 000°05'3 5.9
2017-Dec-10 17:29N 50°32' E 000°10'3 5.1
2017-Dec-10 16:59N 50°33' E 000°14'2 4.6
2017-Dec-10 16:29N 50°33' E 000°18'2 3.9
2017-Dec-10 16:00N 50°33' E 000°21'2 2.7
2017-Dec-10 15:21N 50°34' E 000°23'1 2.0
2017-Dec-10 14:47N 50°34' E 000°25'1 1.8
2017-Dec-10 14:18N 50°35' E 000°26'1 1.5
2017-Dec-10 13:53N 50°35' E 000°27'1 1.2
2017-Dec-10 13:23N 50°36' E 000°27'0 0.6
2017-Dec-10 13:01N 50°36' E 000°27'0 0.5
2017-Dec-10 12:30N 50°36' E 000°28'0 0.8
2017-Dec-10 12:00N 50°36' E 000°28'0 0.8
2017-Dec-10 11:30N 50°36' E 000°29'1 1.7
2017-Dec-10 11:00N 50°36' E 000°30'1 2.2
2017-Dec-10 10:31N 50°37' E 000°32'2 3.2
2017-Dec-10 10:00N 50°37' E 000°34'2 3.6
2017-Dec-10 09:30N 50°38' E 000°36'2 4.2
2017-Dec-10 09:00N 50°39' E 000°39'3 5.1
2017-Dec-10 08:30N 50°41' E 000°42'3 5.4
2017-Dec-10 08:01N 50°43' E 000°45'3 5.7
2017-Dec-10 07:31N 50°45' E 000°48'3 6.0
2017-Dec-10 07:00N 50°47' E 000°52'3 6.4
2017-Dec-10 06:30N 50°49' E 000°56'4 6.7
2017-Dec-10 05:58N 50°51' E 001°01'4 6.8
2017-Dec-10 05:20N 50°54' E 001°06'2 6.9
2017-Dec-10 05:00N 50°55' E 001°09'3 6.7
2017-Dec-10 04:30N 50°57' E 001°13'3 6.9
2017-Dec-10 04:00N 50°59' E 001°17'4 7.5
2017-Dec-10 03:30N 51°02' E 001°22'4 8.9
2017-Dec-10 03:00N 51°04' E 001°27'510.3
2017-Dec-10 02:31N 51°08' E 001°34'510.9
2017-Dec-10 02:01N 51°11' E 001°40'611.2
2017-Dec-10 01:30N 51°15' E 001°47'611.9
2017-Dec-10 01:00N 51°20' E 001°52'611.7
2017-Dec-10 00:31N 51°25' E 001°57'5 9.0
2017-Dec-10 00:00N 51°24' E 002°05'5 9.4
2017-Dec-09 23:30N 51°22' E 002°11'5 9.6
2017-Dec-09 23:01N 51°21' E 002°19'610.2
2017-Dec-09 22:28N 51°22' E 002°28'510.0
2017-Dec-09 21:59N 51°23' E 002°35'5 9.9
2017-Dec-09 21:30N 51°22' E 002°43'4 7.9
2017-Dec-09 21:00N 51°22' E 002°49'5 9.2
2017-Dec-09 20:30N 51°22' E 002°57'4 9.0
2017-Dec-09 20:01N 51°22' E 003°04'4 8.9
2017-Dec-09 19:31N 51°23' E 003°11'4 8.6
2017-Dec-09 19:01N 51°24' E 003°17'4 8.8
2017-Dec-09 18:30N 51°24' E 003°24'4 8.4
2017-Dec-09 17:59N 51°25' E 003°31'4 6.9
2017-Dec-09 17:28N 51°25' E 003°37'3 7.5
2017-Dec-09 17:00N 51°24' E 003°42'4 8.5
2017-Dec-09 16:31N 51°21' E 003°48'4 7.5
2017-Dec-09 16:01N 51°22' E 003°54'4 7.7
2017-Dec-09 15:30N 51°25' E 003°57'3 5.7
2017-Dec-09 15:01N 51°25' E 004°02'4 7.5
2017-Dec-09 14:30N 51°22' E 004°06'4 8.4
2017-Dec-09 14:01N 51°24' E 004°12'5 9.0
2017-Dec-09 13:30N 51°21' E 004°17'0 0.4
2017-Dec-09 13:01N 51°21' E 004°17'0 0.0
2017-Dec-09 12:30N 51°21' E 004°17'0 0.4
2017-Dec-09 12:00N 51°21' E 004°17'1 1.8
2017-Dec-09 11:30N 51°22' E 004°17'0 0.0
2017-Dec-09 10:59N 51°22' E 004°17'0 0.0
2017-Dec-09 10:23N 51°22' E 004°17'0 0.0
2017-Dec-09 09:53N 51°22' E 004°17'0 0.0
2017-Dec-09 09:26N 51°22' E 004°17'0 0.0
2017-Dec-09 08:59N 51°22' E 004°17'0 0.0
2017-Dec-09 06:15N 51°22' E 004°17'0 0.0
2017-Dec-09 04:09N 51°22' E 004°17'0 0.0
2017-Dec-09 03:45N 51°22' E 004°17'0 0.0
2017-Dec-09 03:21N 51°22' E 004°17'0 0.0
2017-Dec-09 02:57N 51°22' E 004°17'0 0.0
2017-Dec-09 02:24N 51°22' E 004°17'0 0.0
2017-Dec-09 01:57N 51°22' E 004°17'0 0.0
2017-Dec-07 23:10N 51°22' E 004°17'0 0.0
2017-Dec-07 22:57N 51°22' E 004°17'0 0.8
2017-Dec-07 22:30N 51°22' E 004°17'4 7.4
2017-Dec-07 22:01N 51°18' E 004°19'2 3.1
2017-Dec-07 21:30N 51°17' E 004°20'0 0.1
2017-Dec-07 21:00N 51°17' E 004°20'2 3.3
2017-Dec-07 20:30N 51°18' E 004°18'1 1.8
2017-Dec-07 20:00N 51°18' E 004°17'2 3.5
2017-Dec-07 19:30N 51°20' E 004°16'3 6.0
2017-Dec-07 18:59N 51°22' E 004°13'3 6.5
2017-Dec-07 18:30N 51°22' E 004°08'4 8.5
2017-Dec-07 18:00N 51°24' E 004°02'3 5.5
2017-Dec-07 17:30N 51°24' E 003°58'510.7
2017-Dec-07 17:00N 51°21' E 003°51'611.2
2017-Dec-07 16:30N 51°23' E 003°43'611.4
2017-Dec-07 16:00N 51°25' E 003°34'4 9.0
2017-Dec-07 15:30N 51°25' E 003°27'4 8.6
2017-Dec-07 15:00N 51°24' E 003°20'5 9.0
2017-Dec-07 14:30N 51°23' E 003°13'612.5
2017-Dec-07 14:00N 51°22' E 003°03'612.7
2017-Dec-07 13:30N 51°21' E 002°53'610.7
2017-Dec-07 12:59N 51°22' E 002°44'3 5.2
2017-Dec-07 12:30N 51°21' E 002°41'4 6.2
2017-Dec-07 11:56N 51°20' E 002°36'1 1.3
2017-Dec-07 11:27N 51°19' E 002°36'1 1.7
2017-Dec-07 10:59N 51°19' E 002°38'2 4.6
2017-Dec-07 10:31N 51°18' E 002°35'2 3.9
2017-Dec-07 09:59N 51°17' E 002°32'1 1.5
2017-Dec-07 09:22N 51°18' E 002°31'1 3.8
2017-Dec-07 09:00N 51°19' E 002°34'2 3.8
2017-Dec-07 08:28N 51°19' E 002°36'2 3.3
2017-Dec-07 08:00N 51°20' E 002°39'1 2.8
2017-Dec-07 07:29N 51°19' E 002°37'3 5.6
2017-Dec-07 06:58N 51°18' E 002°33'2 3.7
2017-Dec-07 06:30N 51°18' E 002°30'2 4.0
2017-Dec-07 06:00N 51°19' E 002°33'2 3.9
2017-Dec-07 05:30N 51°19' E 002°36'1 2.7
2017-Dec-07 05:00N 51°19' E 002°38'3 5.6
2017-Dec-07 04:30N 51°18' E 002°35'3 5.7
2017-Dec-07 04:00N 51°17' E 002°30'3 4.9
2017-Dec-07 03:29N 51°19' E 002°32'2 3.8
2017-Dec-07 02:59N 51°21' E 002°34'0 0.5
2017-Dec-07 02:24N 51°20' E 002°34'0 0.4
2017-Dec-07 01:48N 51°20' E 002°34'0 0.0
2017-Dec-07 00:36N 51°20' E 002°34'0 0.1
2017-Dec-07 00:24N 51°20' E 002°34'0 0.1
2017-Dec-07 00:00N 51°20' E 002°34'0 0.1
2017-Dec-06 23:27N 51°20' E 002°34'0 0.1
2017-Dec-06 23:00N 51°20' E 002°34'0 0.1
2017-Dec-06 22:29N 51°20' E 002°34'1 1.1
2017-Dec-06 22:00N 51°21' E 002°33'4 7.5
2017-Dec-06 21:28N 51°21' E 002°27'5 9.4
2017-Dec-06 20:58N 51°19' E 002°20'  
2017-Dec-03 02:21N 49°56' W 002°56'410.6
2017-Dec-03 01:59N 49°58' W 002°51'612.3
2017-Dec-03 01:27N 50°00' W 002°41'94 9.9
2017-Dec-02 16:01N 50°26' W 000°20'110.8
2017-Dec-02 15:57N 50°26' W 000°19'511.2
2017-Dec-02 15:30N 50°28' W 000°12'611.5
2017-Dec-02 15:00N 50°30' W 000°03'611.6
2017-Dec-02 14:30N 50°32' E 000°05'911.8
2017-Dec-02 13:46N 50°35' E 000°18'311.7
2017-Dec-02 13:30N 50°36' E 000°23'611.6
2017-Dec-02 13:00N 50°38' E 000°31'611.0
2017-Dec-02 12:30N 50°40' E 000°39'510.5
2017-Dec-02 12:00N 50°43' E 000°46'510.1
2017-Dec-02 11:30N 50°46' E 000°53'5 9.5
2017-Dec-02 11:00N 50°49' E 000°59'6 8.9
2017-Dec-02 10:21N 50°53' E 001°05'3 8.7
2017-Dec-02 09:59N 50°55' E 001°09'4 8.8
2017-Dec-02 09:30N 50°58' E 001°14'4 8.8
2017-Dec-02 08:59N 51°01' E 001°20'5 9.7
2017-Dec-02 08:30N 51°04' E 001°26'511.1
2017-Dec-02 08:01N 51°07' E 001°33'612.1
2017-Dec-02 07:30N 51°11' E 001°40'612.6
2017-Dec-02 07:00N 51°15' E 001°48'612.4
2017-Dec-02 06:30N 51°20' E 001°53'612.5
2017-Dec-02 06:01N 51°26' E 001°58'612.0
2017-Dec-02 05:30N 51°30' E 002°04'611.6
2017-Dec-02 04:59N 51°34' E 002°11'30 9.9
2017-Dec-02 01:54N 51°58' E 002°43'4 8.6
2017-Dec-02 01:27N 52°00' E 002°47'4 8.5
2017-Dec-02 01:00N 52°02' E 002°53'28 8.9
2017-Dec-01 21:52N 52°03' E 003°38'410.8
2017-Dec-01 21:30N 52°03' E 003°44'510.5
2017-Dec-01 21:00N 52°03' E 003°53'5 9.6
2017-Dec-01 20:30N 52°01' E 004°00'4 8.9
2017-Dec-01 20:00N 51°59' E 004°07'611.1
2017-Dec-01 19:30N 51°55' E 004°14'5 9.8
2017-Dec-01 19:00N 51°54' E 004°21'4 8.4
2017-Dec-01 18:30N 51°54' E 004°28'0 0.1
2017-Dec-01 18:00N 51°54' E 004°28'0 0.0
2017-Dec-01 17:30N 51°54' E 004°28'0 0.0
2017-Dec-01 17:00N 51°54' E 004°28'0 0.0
2017-Dec-01 16:30N 51°54' E 004°28'0 0.0
2017-Dec-01 16:00N 51°54' E 004°28'0 0.0
2017-Dec-01 15:30N 51°54' E 004°28'0 0.0
2017-Dec-01 14:57N 51°54' E 004°28'0 0.0
2017-Dec-01 14:30N 51°54' E 004°28'0 0.0
2017-Dec-01 14:00N 51°54' E 004°28'0 0.0
2017-Dec-01 13:30N 51°54' E 004°28'0 0.0
2017-Dec-01 13:00N 51°54' E 004°28'0 0.0
2017-Dec-01 12:30N 51°54' E 004°28'0 0.0
2017-Dec-01 12:00N 51°54' E 004°28'0 0.0
2017-Dec-01 11:30N 51°54' E 004°28'0 0.0
2017-Dec-01 11:00N 51°54' E 004°28'  

Dump ship's entire track history